aviador You're here:

WBGR Decoded Metar

MIRI in MALAYSIA
Report Time2017-06-22 21:00:00
UTC Time2017-06-22 22:20:46
Flight Rules Old
WindCalm
Visibility9999 m
Phenomena:N/A
Clouds:Few 016 Hf
Broken 150 Hf
Expected CloudBase > 400 ft AGL from Temp-Dew spread
Ceiling15,000 ft
Temp25°C (ISA +10)
Dew Point24°C (94% RH)
QNH1009 hPa
Density Alt1,759 ft
Elevation59 ft
Report Wrong Elevation
Raw Report
METAR WBGR 222100Z 00000KT 9999 FEW016 BKN150 25/24 Q1009=

Extra information for WBGR:More info

Metar Taf Metar & Taf Last 4 Metars F.Rules Stats Wind Profile Meteogram Temp Stats Airport Information Weather charts Add Link Nearby VenuesMetar ALERT Operation Metar Decoded Social comments